フェニックス の空港の天気 - METARとTAF

フェニックス・スカイハーバー国際空港 ( KPHX / PHX ) - アメリカ アリゾナ州フェニックス
飛行場実況気象(Metar)
観測時間02/17 15:51 MST (02/17 22:51 UTC)
風向・風速南南西 7m/s 瞬間風速9m/s
視程10km以上
天気現象
全天の4割程度の雲 雲底高度 2290m
全天の8割程度の雲 雲底高度 2900m
気温15℃
湿度29%
気圧1012.1hPa
METARKPHX 172251Z 21014G18KT 10SM SCT075 BKN095 15/M03 A2990 RMK AO2 WSHFT 2150 SLP121 T01501028
過去の天気等 Google飛行場航空写真 Wunderground天気予報

過去48時間のMETAR

飛行場予報(TAF)
発表時間: 2/17 14:09 MST (2/17 21:09 UTC)
予報対象時間: 17日14時 MST ~ 18日17時 MST
風向・風速西南西 5m/s 瞬間風速 9m/s
視程10km以上
少しの雲 雲底高度 1520m
全天の8割程度の雲 雲底高度 2130m
全天の8割程度の雲 雲底高度 2740m
17日18時 MST から
風向・風速南西 4m/s
視程10km以上
天気現象周辺でしゅう雨
少しの雲 雲底高度 1520m
全天の8割程度の雲 雲底高度 2130m
全天の8割程度の雲 雲底高度 3050m
18日0時 MST から
風向・風速西南西 5m/s
視程10km以上
天気現象弱いしゅう雨
全天の4割程度の雲 雲底高度 1220m
全天の8割程度の雲 雲底高度 1830m
全天を覆う雲 雲底高度 2440m
18日10時 MST から
風向・風速西南西 4m/s
視程10km以上
天気現象周辺でしゅう雨
全天の4割程度の雲 雲底高度 1220m
全天の8割程度の雲 雲底高度 1520m
KPHX 172109Z 1721/1824 25010G18KT P6SM FEW050 BKN070 BKN090
FM180100 22008KT P6SM VCSH FEW050 BKN070 BKN100
FM180700 24010KT P6SM -SHRA SCT040 BKN060 OVC080
FM181700 24007KT P6SM VCSH SCT040 BKN050